sensor_id;sensor_type;location;lat;lon;timestamp;pressure;altitude;pressure_sealevel;temperature;humidity
20015;BME280;61787;42.022;23.078;2023-04-25T00:01:02;96063.66;;;13.94;100.00
20015;BME280;61787;42.022;23.078;2023-04-25T00:02:05;96057.53;;;14.00;100.00
20015;BME280;61787;42.022;23.078;2023-04-25T00:03:06;96057.59;;;14.07;100.00
20015;BME280;61787;42.022;23.078;2023-04-25T00:04:10;96055.69;;;14.12;100.00
20015;BME280;61787;42.022;23.078;2023-04-25T00:05:13;96060.72;;;14.17;100.00
20015;BME280;61787;42.022;23.078;2023-04-25T00:06:16;96064.63;;;14.19;100.00
20015;BME280;61787;42.022;23.078;2023-04-25T00:07:19;96060.72;;;14.17;100.00
20015;BME280;61787;42.022;23.078;2023-04-25T00:08:20;96055.75;;;14.19;100.00
20015;BME280;61787;42.022;23.078;2023-04-25T00:09:22;96053.13;;;14.26;100.00
20015;BME280;61787;42.022;23.078;2023-04-25T00:10:23;96052.34;;;14.29;100.00
20015;BME280;61787;42.022;23.078;2023-04-25T00:11:25;96053.56;;;14.35;100.00
20015;BME280;61787;42.022;23.078;2023-04-25T00:12:27;96052.81;;;14.38;100.00
20015;BME280;61787;42.022;23.078;2023-04-25T00:13:30;96047.09;;;14.43;100.00
20015;BME280;61787;42.022;23.078;2023-04-25T00:14:31;96041.72;;;14.46;100.00
20015;BME280;61787;42.022;23.078;2023-04-25T00:15:35;96050.22;;;14.52;100.00
20015;BME280;61787;42.022;23.078;2023-04-25T00:16:39;96049.47;;;14.55;100.00
20015;BME280;61787;42.022;23.078;2023-04-25T00:17:42;96047.97;;;14.61;100.00
20015;BME280;61787;42.022;23.078;2023-04-25T00:18:44;96039.47;;;14.63;100.00
20015;BME280;61787;42.022;23.078;2023-04-25T00:19:47;96039.47;;;14.63;100.00
20015;BME280;61787;42.022;23.078;2023-04-25T00:20:49;96043.38;;;14.65;100.00
20015;BME280;61787;42.022;23.078;2023-04-25T00:21:51;96042.59;;;14.68;100.00
20015;BME280;61787;42.022;23.078;2023-04-25T00:22:52;96039.53;;;14.70;100.00
20015;BME280;61787;42.022;23.078;2023-04-25T00:23:55;96033.31;;;14.62;100.00
20015;BME280;61787;42.022;23.078;2023-04-25T00:24:57;96037.56;;;14.63;100.00
20015;BME280;61787;42.022;23.078;2023-04-25T00:26:02;96043.38;;;14.65;100.00
20015;BME280;61787;42.022;23.078;2023-04-25T00:27:03;96030.94;;;14.50;100.00
20015;BME280;61787;42.022;23.078;2023-04-25T00:28:05;96039.75;;;14.43;100.00
20015;BME280;61787;42.022;23.078;2023-04-25T00:29:06;96040.19;;;14.49;100.00
20015;BME280;61787;42.022;23.078;2023-04-25T00:30:08;96036.34;;;14.46;100.00
20015;BME280;61787;42.022;23.078;2023-04-25T00:31:10;96037.09;;;14.47;100.00
20015;BME280;61787;42.022;23.078;2023-04-25T00:32:12;96036.72;;;14.52;100.00
20015;BME280;61787;42.022;23.078;2023-04-25T00:33:13;96026.34;;;14.54;100.00
20015;BME280;61787;42.022;23.078;2023-04-25T00:34:15;96030.16;;;14.46;100.00
20015;BME280;61787;42.022;23.078;2023-04-25T00:35:16;96031.31;;;14.48;100.00
20015;BME280;61787;42.022;23.078;2023-04-25T00:36:18;96036.72;;;14.52;100.00
20015;BME280;61787;42.022;23.078;2023-04-25T00:37:19;96032.88;;;14.53;100.00
20015;BME280;61787;42.022;23.078;2023-04-25T00:38:21;96027.06;;;14.47;100.00
20015;BME280;61787;42.022;23.078;2023-04-25T00:39:23;96023.22;;;14.45;100.00
20015;BME280;61787;42.022;23.078;2023-04-25T00:40:24;96025.13;;;14.41;100.00
20015;BME280;61787;42.022;23.078;2023-04-25T00:41:26;96017.03;;;14.41;100.00
20015;BME280;61787;42.022;23.078;2023-04-25T00:42:28;96026.19;;;14.33;100.00
20015;BME280;61787;42.022;23.078;2023-04-25T00:43:32;96018.50;;;14.35;100.00
20015;BME280;61787;42.022;23.078;2023-04-25T00:44:34;96022.38;;;14.37;100.00
20015;BME280;61787;42.022;23.078;2023-04-25T00:45:38;96021.66;;;14.44;100.00
20015;BME280;61787;42.022;23.078;2023-04-25T00:46:41;96027.06;;;14.44;100.00
20015;BME280;61787;42.022;23.078;2023-04-25T00:47:44;96022.84;;;14.50;100.00
20015;BME280;61787;42.022;23.078;2023-04-25T00:48:46;96020.16;;;14.54;100.00
20015;BME280;61787;42.022;23.078;2023-04-25T00:49:48;96030.22;;;14.57;100.00
20015;BME280;61787;42.022;23.078;2023-04-25T00:50:54;96020.22;;;14.61;100.00
20015;BME280;61787;42.022;23.078;2023-04-25T00:51:56;96027.19;;;14.65;100.00
20015;BME280;61787;42.022;23.078;2023-04-25T00:52:58;96027.19;;;14.69;100.00
20015;BME280;61787;42.022;23.078;2023-04-25T00:54:00;96024.13;;;14.70;100.00
20015;BME280;61787;42.022;23.078;2023-04-25T00:55:02;96031.03;;;14.64;100.00
20015;BME280;61787;42.022;23.078;2023-04-25T00:56:05;96028.28;;;14.57;100.00
20015;BME280;61787;42.022;23.078;2023-04-25T00:57:07;96024.78;;;14.46;100.00
20015;BME280;61787;42.022;23.078;2023-04-25T00:58:08;96026.59;;;14.35;100.00
20015;BME280;61787;42.022;23.078;2023-04-25T00:59:10;96031.53;;;14.26;100.00
20015;BME280;61787;42.022;23.078;2023-04-25T01:00:12;96029.16;;;14.17;100.00
20015;BME280;61787;42.022;23.078;2023-04-25T01:01:15;96026.81;;;14.12;100.00
20015;BME280;61787;42.022;23.078;2023-04-25T01:02:18;96032.25;;;14.16;100.00
20015;BME280;61787;42.022;23.078;2023-04-25T01:03:21;96028.38;;;14.17;100.00
20015;BME280;61787;42.022;23.078;2023-04-25T01:04:23;96029.84;;;14.07;100.00
20015;BME280;61787;42.022;23.078;2023-04-25T01:05:25;96024.34;;;13.89;100.00
20015;BME280;61787;42.022;23.078;2023-04-25T01:06:27;96026.09;;;13.71;100.00
20015;BME280;61787;42.022;23.078;2023-04-25T01:07:29;96022.53;;;13.60;100.00
20015;BME280;61787;42.022;23.078;2023-04-25T01:08:31;96024.44;;;13.59;100.00
20015;BME280;61787;42.022;23.078;2023-04-25T01:09:33;96020.56;;;13.53;100.00
20015;BME280;61787;42.022;23.078;2023-04-25T01:10:34;96027.78;;;13.46;100.00
20015;BME280;61787;42.022;23.078;2023-04-25T01:11:36;96018.16;;;13.45;100.00
20015;BME280;61787;42.022;23.078;2023-04-25T01:12:38;96026.97;;;13.38;100.00
20015;BME280;61787;42.022;23.078;2023-04-25T01:13:40;96025.69;;;13.29;100.00
20015;BME280;61787;42.022;23.078;2023-04-25T01:14:41;96021.38;;;13.20;100.00
20015;BME280;61787;42.022;23.078;2023-04-25T01:15:43;96017.13;;;13.19;100.00
20015;BME280;61787;42.022;23.078;2023-04-25T01:16:45;96015.91;;;13.13;100.00
20015;BME280;61787;42.022;23.078;2023-04-25T01:17:46;96013.50;;;13.08;100.00
20015;BME280;61787;42.022;23.078;2023-04-25T01:18:51;96008.09;;;13.05;100.00
20015;BME280;61787;42.022;23.078;2023-04-25T01:19:52;96009.66;;;13.06;100.00
20015;BME280;61787;42.022;23.078;2023-04-25T01:20:54;96011.91;;;13.00;100.00
20015;BME280;61787;42.022;23.078;2023-04-25T01:21:57;96002.56;;;12.91;100.00
20015;BME280;61787;42.022;23.078;2023-04-25T01:22:59;95996.41;;;12.90;100.00
20015;BME280;61787;42.022;23.078;2023-04-25T01:24:01;95994.81;;;12.86;100.00
20015;BME280;61787;42.022;23.078;2023-04-25T01:25:03;95990.94;;;12.83;100.00
20015;BME280;61787;42.022;23.078;2023-04-25T01:26:10;95994.78;;;12.82;100.00
20015;BME280;61787;42.022;23.078;2023-04-25T01:27:11;95990.16;;;12.82;100.00
20015;BME280;61787;42.022;23.078;2023-04-25T01:28:13;96002.47;;;12.83;100.00
20015;BME280;61787;42.022;23.078;2023-04-25T01:29:17;95997.09;;;12.83;100.00
20015;BME280;61787;42.022;23.078;2023-04-25T01:30:19;95997.50;;;12.86;100.00
20015;BME280;61787;42.022;23.078;2023-04-25T01:31:21;96000.16;;;12.82;100.00
20015;BME280;61787;42.022;23.078;2023-04-25T01:32:23;95993.25;;;12.81;100.00
20015;BME280;61787;42.022;23.078;2023-04-25T01:33:25;95991.34;;;12.85;100.00
20015;BME280;61787;42.022;23.078;2023-04-25T01:34:26;95991.81;;;12.91;100.00
20015;BME280;61787;42.022;23.078;2023-04-25T01:35:28;95990.69;;;12.95;100.00
20015;BME280;61787;42.022;23.078;2023-04-25T01:36:30;95991.13;;;12.97;100.00
20015;BME280;61787;42.022;23.078;2023-04-25T01:37:32;95987.22;;;12.95;100.00
20015;BME280;61787;42.022;23.078;2023-04-25T01:38:34;95988.00;;;12.95;100.00
20015;BME280;61787;42.022;23.078;2023-04-25T01:39:36;95983.41;;;12.96;100.00
20015;BME280;61787;42.022;23.078;2023-04-25T01:40:39;95985.75;;;12.97;100.00
20015;BME280;61787;42.022;23.078;2023-04-25T01:41:42;95983.84;;;13.01;100.00
20015;BME280;61787;42.022;23.078;2023-04-25T01:42:45;95982.31;;;13.04;100.00
20015;BME280;61787;42.022;23.078;2023-04-25T01:43:47;95987.34;;;13.05;100.00
20015;BME280;61787;42.022;23.078;2023-04-25T01:44:49;95988.03;;;12.99;100.00
20015;BME280;61787;42.022;23.078;2023-04-25T01:45:50;95983.44;;;12.99;100.00
20015;BME280;61787;42.022;23.078;2023-04-25T01:46:53;95986.50;;;12.98;100.00
20015;BME280;61787;42.022;23.078;2023-04-25T01:47:55;95990.34;;;12.97;100.00
20015;BME280;61787;42.022;23.078;2023-04-25T01:49:01;95986.41;;;12.91;100.00
20015;BME280;61787;42.022;23.078;2023-04-25T01:50:04;95989.91;;;12.91;100.00
20015;BME280;61787;42.022;23.078;2023-04-25T01:51:06;95979.47;;;12.86;100.00
20015;BME280;61787;42.022;23.078;2023-04-25T01:52:07;95984.91;;;12.93;100.00
20015;BME280;61787;42.022;23.078;2023-04-25T01:53:09;95986.47;;;12.94;100.00
20015;BME280;61787;42.022;23.078;2023-04-25T01:54:13;95978.13;;;13.06;100.00
20015;BME280;61787;42.022;23.078;2023-04-25T01:55:15;95980.09;;;13.09;100.00
20015;BME280;61787;42.022;23.078;2023-04-25T01:56:18;95981.34;;;13.19;100.00
20015;BME280;61787;42.022;23.078;2023-04-25T01:57:19;95981.47;;;13.30;100.00
20015;BME280;61787;42.022;23.078;2023-04-25T01:58:21;95983.47;;;13.40;100.00
20015;BME280;61787;42.022;23.078;2023-04-25T01:59:23;95980.50;;;13.48;100.00
20015;BME280;61787;42.022;23.078;2023-04-25T02:00:24;95982.09;;;13.53;100.00
20015;BME280;61787;42.022;23.078;2023-04-25T02:01:26;95985.41;;;13.39;100.00
20015;BME280;61787;42.022;23.078;2023-04-25T02:02:28;95978.38;;;13.28;100.00
20015;BME280;61787;42.022;23.078;2023-04-25T02:03:31;95979.84;;;13.21;100.00
20015;BME280;61787;42.022;23.078;2023-04-25T02:04:33;95974.53;;;13.29;100.00
20015;BME280;61787;42.022;23.078;2023-04-25T02:05:36;95963.44;;;13.34;100.00
20015;BME280;61787;42.022;23.078;2023-04-25T02:06:38;95973.06;;;13.35;100.00
20015;BME280;61787;42.022;23.078;2023-04-25T02:07:39;95970.78;;;13.37;100.00
20015;BME280;61787;42.022;23.078;2023-04-25T02:08:41;95968.09;;;13.37;100.00
20015;BME280;61787;42.022;23.078;2023-04-25T02:09:42;95963.72;;;13.25;100.00
20015;BME280;61787;42.022;23.078;2023-04-25T02:10:44;95966.00;;;13.19;100.00
20015;BME280;61787;42.022;23.078;2023-04-25T02:11:45;95959.03;;;13.18;100.00
20015;BME280;61787;42.022;23.078;2023-04-25T02:12:47;95962.91;;;13.17;100.00
20015;BME280;61787;42.022;23.078;2023-04-25T02:13:49;95959.78;;;13.12;100.00
20015;BME280;61787;42.022;23.078;2023-04-25T02:14:51;95959.69;;;13.08;100.00
20015;BME280;61787;42.022;23.078;2023-04-25T02:15:52;95958.09;;;13.04;100.00
20015;BME280;61787;42.022;23.078;2023-04-25T02:16:54;95956.19;;;13.04;100.00
20015;BME280;61787;42.022;23.078;2023-04-25T02:17:56;95949.78;;;13.12;100.00
20015;BME280;61787;42.022;23.078;2023-04-25T02:18:59;95955.84;;;13.09;100.00
20015;BME280;61787;42.022;23.078;2023-04-25T02:20:01;95955.09;;;13.09;100.00
20015;BME280;61787;42.022;23.078;2023-04-25T02:21:03;95948.91;;;13.08;100.00
20015;BME280;61787;42.022;23.078;2023-04-25T02:22:04;95954.28;;;13.05;100.00
20015;BME280;61787;42.022;23.078;2023-04-25T02:23:06;95950.38;;;12.99;100.00
20015;BME280;61787;42.022;23.078;2023-04-25T02:24:08;95946.56;;;13.03;100.00
20015;BME280;61787;42.022;23.078;2023-04-25T02:25:10;95948.91;;;13.05;100.00
20015;BME280;61787;42.022;23.078;2023-04-25T02:26:12;95948.88;;;13.01;100.00
20015;BME280;61787;42.022;23.078;2023-04-25T02:27:14;95947.69;;;12.99;100.00
20015;BME280;61787;42.022;23.078;2023-04-25T02:28:16;95948.75;;;12.91;100.00
20015;BME280;61787;42.022;23.078;2023-04-25T02:29:18;95945.63;;;12.85;100.00
20015;BME280;61787;42.022;23.078;2023-04-25T02:30:19;95946.69;;;12.77;100.00
20015;BME280;61787;42.022;23.078;2023-04-25T02:31:21;95952.47;;;12.79;100.00
20015;BME280;61787;42.022;23.078;2023-04-25T02:32:23;95948.72;;;12.87;100.00
20015;BME280;61787;42.022;23.078;2023-04-25T02:33:24;95950.34;;;12.95;100.00
20015;BME280;61787;42.022;23.078;2023-04-25T02:34:26;95943.47;;;12.98;100.00
20015;BME280;61787;42.022;23.078;2023-04-25T02:35:27;95955.31;;;12.93;100.00
20015;BME280;61787;42.022;23.078;2023-04-25T02:36:29;95955.25;;;12.86;100.00
20015;BME280;61787;42.022;23.078;2023-04-25T02:37:35;95947.16;;;12.86;100.00
20015;BME280;61787;42.022;23.078;2023-04-25T02:38:37;95949.44;;;12.84;100.00
20015;BME280;61787;42.022;23.078;2023-04-25T02:39:38;95945.53;;;12.78;100.00
20015;BME280;61787;42.022;23.078;2023-04-25T02:40:40;95944.72;;;12.74;100.00
20015;BME280;61787;42.022;23.078;2023-04-25T02:41:42;95945.53;;;12.78;100.00
20015;BME280;61787;42.022;23.078;2023-04-25T02:42:43;95943.22;;;12.76;100.00
20015;BME280;61787;42.022;23.078;2023-04-25T02:43:47;95942.84;;;12.78;100.00
20015;BME280;61787;42.022;23.078;2023-04-25T02:44:49;95945.06;;;12.72;100.00
20015;BME280;61787;42.022;23.078;2023-04-25T02:45:51;95940.41;;;12.66;100.00
20015;BME280;61787;42.022;23.078;2023-04-25T02:46:52;95943.88;;;12.66;100.00
20015;BME280;61787;42.022;23.078;2023-04-25T02:47:54;95949.25;;;12.66;100.00
20015;BME280;61787;42.022;23.078;2023-04-25T02:48:56;95948.41;;;12.62;100.00
20015;BME280;61787;42.022;23.078;2023-04-25T02:49:58;95946.84;;;12.58;100.00
20015;BME280;61787;42.022;23.078;2023-04-25T02:50:59;95941.06;;;12.56;100.00
20015;BME280;61787;42.022;23.078;2023-04-25T02:52:01;95948.28;;;12.52;100.00
20015;BME280;61787;42.022;23.078;2023-04-25T02:53:02;95945.19;;;12.46;100.00
20015;BME280;61787;42.022;23.078;2023-04-25T02:54:04;95948.22;;;12.45;100.00
20015;BME280;61787;42.022;23.078;2023-04-25T02:55:06;95948.22;;;12.45;100.00
20015;BME280;61787;42.022;23.078;2023-04-25T02:56:08;95949.03;;;12.49;100.00
20015;BME280;61787;42.022;23.078;2023-04-25T02:57:09;95947.53;;;12.51;100.00
20015;BME280;61787;42.022;23.078;2023-04-25T02:58:11;95947.13;;;12.49;100.00
20015;BME280;61787;42.022;23.078;2023-04-25T02:59:13;95952.19;;;12.54;100.00
20015;BME280;61787;42.022;23.078;2023-04-25T03:00:14;95950.31;;;12.58;100.00
20015;BME280;61787;42.022;23.078;2023-04-25T03:01:16;95956.34;;;12.52;100.00
20015;BME280;61787;42.022;23.078;2023-04-25T03:02:18;95958.97;;;12.45;100.00
20015;BME280;61787;42.022;23.078;2023-04-25T03:03:19;95956.66;;;12.43;100.00
20015;BME280;61787;42.022;23.078;2023-04-25T03:04:23;95960.06;;;12.40;100.00
20015;BME280;61787;42.022;23.078;2023-04-25T03:05:28;95959.69;;;12.42;100.00
20015;BME280;61787;42.022;23.078;2023-04-25T03:06:29;95959.69;;;12.42;100.00
20015;BME280;61787;42.022;23.078;2023-04-25T03:07:32;95959.34;;;12.43;100.00
20015;BME280;61787;42.022;23.078;2023-04-25T03:08:33;95956.69;;;12.47;100.00
20015;BME280;61787;42.022;23.078;2023-04-25T03:09:35;95958.66;;;12.50;100.00
20015;BME280;61787;42.022;23.078;2023-04-25T03:10:38;95957.53;;;12.51;100.00
20015;BME280;61787;42.022;23.078;2023-04-25T03:11:39;95955.16;;;12.46;100.00
20015;BME280;61787;42.022;23.078;2023-04-25T03:12:41;95953.28;;;12.50;100.00
20015;BME280;61787;42.022;23.078;2023-04-25T03:13:42;95960.59;;;12.53;100.00
20015;BME280;61787;42.022;23.078;2023-04-25T03:14:44;95959.88;;;12.56;100.00
20015;BME280;61787;42.022;23.078;2023-04-25T03:15:45;95960.59;;;12.53;100.00
20015;BME280;61787;42.022;23.078;2023-04-25T03:16:47;95957.47;;;12.47;100.00
20015;BME280;61787;42.022;23.078;2023-04-25T03:17:49;95953.97;;;12.43;100.00
20015;BME280;61787;42.022;23.078;2023-04-25T03:18:50;95953.19;;;12.43;100.00
20015;BME280;61787;42.022;23.078;2023-04-25T03:19:52;95949.69;;;12.38;100.00
20015;BME280;61787;42.022;23.078;2023-04-25T03:20:53;95955.81;;;12.35;100.00
20015;BME280;61787;42.022;23.078;2023-04-25T03:21:55;95951.09;;;12.29;100.00
20015;BME280;61787;42.022;23.078;2023-04-25T03:22:57;95949.50;;;12.24;100.00
20015;BME280;61787;42.022;23.078;2023-04-25T03:24:00;95950.63;;;12.23;100.00
20015;BME280;61787;42.022;23.078;2023-04-25T03:25:01;95954.41;;;12.19;100.00
20015;BME280;61787;42.022;23.078;2023-04-25T03:26:04;95953.22;;;12.16;100.00
20015;BME280;61787;42.022;23.078;2023-04-25T03:27:05;95949.72;;;12.12;100.00
20015;BME280;61787;42.022;23.078;2023-04-25T03:28:07;95956.22;;;12.11;100.00
20015;BME280;61787;42.022;23.078;2023-04-25T03:29:09;95956.66;;;12.13;100.00
20015;BME280;61787;42.022;23.078;2023-04-25T03:30:10;95952.50;;;12.19;100.00
20015;BME280;61787;42.022;23.078;2023-04-25T03:31:12;95954.88;;;12.24;100.00
20015;BME280;61787;42.022;23.078;2023-04-25T03:32:14;95956.50;;;12.32;100.00
20015;BME280;61787;42.022;23.078;2023-04-25T03:33:16;95962.00;;;12.39;100.00
20015;BME280;61787;42.022;23.078;2023-04-25T03:34:17;95961.25;;;12.43;100.00
20015;BME280;61787;42.022;23.078;2023-04-25T03:35:19;95964.31;;;12.41;100.00
20015;BME280;61787;42.022;23.078;2023-04-25T03:36:21;95962.75;;;12.40;100.00
20015;BME280;61787;42.022;23.078;2023-04-25T03:37:23;95964.25;;;12.37;100.00
20015;BME280;61787;42.022;23.078;2023-04-25T03:38:24;95960.78;;;12.37;100.00
20015;BME280;61787;42.022;23.078;2023-04-25T03:39:26;95961.19;;;12.35;100.00
20015;BME280;61787;42.022;23.078;2023-04-25T03:40:28;95962.81;;;12.44;100.00
20015;BME280;61787;42.022;23.078;2023-04-25T03:41:29;95963.25;;;12.49;100.00
20015;BME280;61787;42.022;23.078;2023-04-25T03:42:31;95957.47;;;12.47;100.00
20015;BME280;61787;42.022;23.078;2023-04-25T03:43:33;95955.41;;;12.37;100.00
20015;BME280;61787;42.022;23.078;2023-04-25T03:44:34;95952.25;;;12.31;100.00
20015;BME280;61787;42.022;23.078;2023-04-25T03:45:36;95954.56;;;12.29;100.00
20015;BME280;61787;42.022;23.078;2023-04-25T03:46:37;95949.50;;;12.24;100.00
20015;BME280;61787;42.022;23.078;2023-04-25T03:47:39;95956.31;;;12.18;100.00
20015;BME280;61787;42.022;23.078;2023-04-25T03:48:41;95949.00;;;12.15;100.00
20015;BME280;61787;42.022;23.078;2023-04-25T03:49:42;95952.41;;;12.12;100.00
20015;BME280;61787;42.022;23.078;2023-04-25T03:50:44;95952.41;;;12.12;100.00
20015;BME280;61787;42.022;23.078;2023-04-25T03:51:46;95948.59;;;12.13;100.00
20015;BME280;61787;42.022;23.078;2023-04-25T03:52:47;95956.66;;;12.13;100.00
20015;BME280;61787;42.022;23.078;2023-04-25T03:53:49;95955.50;;;12.14;100.00
20015;BME280;61787;42.022;23.078;2023-04-25T03:54:51;95957.88;;;12.19;100.00
20015;BME280;61787;42.022;23.078;2023-04-25T03:55:52;95952.50;;;12.19;100.00
20015;BME280;61787;42.022;23.078;2023-04-25T03:56:54;95953.28;;;12.20;100.00
20015;BME280;61787;42.022;23.078;2023-04-25T03:57:55;95959.44;;;12.20;100.00
20015;BME280;61787;42.022;23.078;2023-04-25T03:58:59;95959.44;;;12.20;100.00
20015;BME280;61787;42.022;23.078;2023-04-25T04:00:01;95962.44;;;12.15;100.00
20015;BME280;61787;42.022;23.078;2023-04-25T04:01:02;95953.53;;;12.11;100.00
20015;BME280;61787;42.022;23.078;2023-04-25T04:02:08;95957.69;;;12.05;100.00
20015;BME280;61787;42.022;23.078;2023-04-25T04:03:10;95957.31;;;12.07;100.00
20015;BME280;61787;42.022;23.078;2023-04-25T04:04:12;95966.16;;;12.07;100.00
20015;BME280;61787;42.022;23.078;2023-04-25T04:05:14;95956.22;;;12.11;100.00
20015;BME280;61787;42.022;23.078;2023-04-25T04:06:16;95956.19;;;12.08;100.00
20015;BME280;61787;42.022;23.078;2023-04-25T04:07:18;95955.81;;;12.09;100.00
20015;BME280;61787;42.022;23.078;2023-04-25T04:08:19;95957.78;;;12.12;100.00
20015;BME280;61787;42.022;23.078;2023-04-25T04:09:21;95957.81;;;12.16;100.00
20015;BME280;61787;42.022;23.078;2023-04-25T04:10:23;95957.88;;;12.19;100.00
20015;BME280;61787;42.022;23.078;2023-04-25T04:11:25;95954.06;;;12.20;100.00
20015;BME280;61787;42.022;23.078;2023-04-25T04:12:26;95955.91;;;12.16;100.00
20015;BME280;61787;42.022;23.078;2023-04-25T04:13:28;95960.97;;;12.21;100.00
20015;BME280;61787;42.022;23.078;2023-04-25T04:14:30;95956.44;;;12.25;100.00
20015;BME280;61787;42.022;23.078;2023-04-25T04:15:31;95964.50;;;12.25;100.00
20015;BME280;61787;42.022;23.078;2023-04-25T04:16:34;95962.47;;;12.19;100.00
20015;BME280;61787;42.022;23.078;2023-04-25T04:17:36;95958.28;;;12.21;100.00
20015;BME280;61787;42.022;23.078;2023-04-25T04:18:38;95963.41;;;12.30;100.00
20015;BME280;61787;42.022;23.078;2023-04-25T04:19:39;95956.91;;;12.31;100.00
20015;BME280;61787;42.022;23.078;2023-04-25T04:20:41;95963.78;;;12.32;100.00
20015;BME280;61787;42.022;23.078;2023-04-25T04:21:42;95961.88;;;12.32;100.00
20015;BME280;61787;42.022;23.078;2023-04-25T04:22:44;95963.03;;;12.31;100.00
20015;BME280;61787;42.022;23.078;2023-04-25T04:23:46;95962.00;;;12.39;100.00
20015;BME280;61787;42.022;23.078;2023-04-25T04:24:48;95963.59;;;12.44;100.00
20015;BME280;61787;42.022;23.078;2023-04-25T04:25:51;95962.38;;;12.42;100.00
20015;BME280;61787;42.022;23.078;2023-04-25T04:26:53;95962.66;;;12.33;100.00
20015;BME280;61787;42.022;23.078;2023-04-25T04:27:55;95959.19;;;12.32;100.00
20015;BME280;61787;42.022;23.078;2023-04-25T04:28:56;95966.44;;;12.28;100.00
20015;BME280;61787;42.022;23.078;2023-04-25T04:30:00;95964.50;;;12.25;100.00
20015;BME280;61787;42.022;23.078;2023-04-25T04:31:03;95960.72;;;12.30;100.00
20015;BME280;61787;42.022;23.078;2023-04-25T04:32:05;95964.56;;;12.32;100.00
20015;BME280;61787;42.022;23.078;2023-04-25T04:33:07;95967.69;;;12.34;100.00
20015;BME280;61787;42.022;23.078;2023-04-25T04:34:08;95972.78;;;12.43;100.00
20015;BME280;61787;42.022;23.078;2023-04-25T04:35:10;95969.00;;;12.48;100.00
20015;BME280;61787;42.022;23.078;2023-04-25T04:36:12;95962.84;;;12.47;100.00
20015;BME280;61787;42.022;23.078;2023-04-25T04:37:14;95964.41;;;12.48;100.00
20015;BME280;61787;42.022;23.078;2023-04-25T04:38:16;95970.59;;;12.52;100.00
20015;BME280;61787;42.022;23.078;2023-04-25T04:39:17;95975.19;;;12.52;100.00
20015;BME280;61787;42.022;23.078;2023-04-25T04:40:19;95966.72;;;12.50;100.00
20015;BME280;61787;42.022;23.078;2023-04-25T04:41:22;95972.09;;;12.50;100.00
20015;BME280;61787;42.022;23.078;2023-04-25T04:42:23;95965.50;;;12.44;100.00
20015;BME280;61787;42.022;23.078;2023-04-25T04:43:25;95965.13;;;12.45;100.00
20015;BME280;61787;42.022;23.078;2023-04-25T04:44:27;95974.31;;;12.41;100.00
20015;BME280;61787;42.022;23.078;2023-04-25T04:45:29;95970.38;;;12.34;100.00
20015;BME280;61787;42.022;23.078;2023-04-25T04:46:31;95973.38;;;12.29;100.00
20015;BME280;61787;42.022;23.078;2023-04-25T04:47:33;95974.19;;;12.33;100.00
20015;BME280;61787;42.022;23.078;2023-04-25T04:48:35;95966.56;;;12.35;100.00
20015;BME280;61787;42.022;23.078;2023-04-25T04:49:36;95970.75;;;12.36;100.00
20015;BME280;61787;42.022;23.078;2023-04-25T04:50:38;95968.47;;;12.35;100.00
20015;BME280;61787;42.022;23.078;2023-04-25T04:51:40;95965.00;;;12.34;100.00
20015;BME280;61787;42.022;23.078;2023-04-25T04:52:48;95962.69;;;12.36;100.00
20015;BME280;61787;42.022;23.078;2023-04-25T04:53:50;95966.94;;;12.37;100.00
20015;BME280;61787;42.022;23.078;2023-04-25T04:54:53;95967.41;;;12.43;100.00
20015;BME280;61787;42.022;23.078;2023-04-25T04:55:55;95970.19;;;12.50;100.00
20015;BME280;61787;42.022;23.078;2023-04-25T04:56:57;95975.97;;;12.52;100.00
20015;BME280;61787;42.022;23.078;2023-04-25T04:58:00;95973.34;;;12.56;100.00
20015;BME280;61787;42.022;23.078;2023-04-25T04:59:05;95966.75;;;12.53;100.00
20015;BME280;61787;42.022;23.078;2023-04-25T05:00:08;95959.78;;;12.49;100.00
20015;BME280;61787;42.022;23.078;2023-04-25T05:01:12;95958.88;;;12.37;100.00
20015;BME280;61787;42.022;23.078;2023-04-25T05:02:14;95961.19;;;12.35;100.00
20015;BME280;61787;42.022;23.078;2023-04-25T05:03:16;95957.28;;;12.33;100.00
20015;BME280;61787;42.022;23.078;2023-04-25T05:04:18;95958.06;;;12.33;100.00
20015;BME280;61787;42.022;23.078;2023-04-25T05:05:20;95958.81;;;12.30;100.00
20015;BME280;61787;42.022;23.078;2023-04-25T05:06:21;95963.34;;;12.26;100.00
20015;BME280;61787;42.022;23.078;2023-04-25T05:07:23;95957.91;;;12.23;100.00
20015;BME280;61787;42.022;23.078;2023-04-25T05:08:25;95960.25;;;12.24;100.00
20015;BME280;61787;42.022;23.078;2023-04-25T05:09:27;95960.34;;;12.31;100.00
20015;BME280;61787;42.022;23.078;2023-04-25T05:10:29;95964.34;;;12.45;100.00
20015;BME280;61787;42.022;23.078;2023-04-25T05:11:33;95963.72;;;12.55;100.00
20015;BME280;61787;42.022;23.078;2023-04-25T05:12:34;95970.78;;;12.66;100.00
20015;BME280;61787;42.022;23.078;2023-04-25T05:13:37;95976.28;;;12.77;100.00
20015;BME280;61787;42.022;23.078;2023-04-25T05:14:39;95961.00;;;12.88;100.00
20015;BME280;61787;42.022;23.078;2023-04-25T05:15:40;95965.69;;;12.95;100.00
20015;BME280;61787;42.022;23.078;2023-04-25T05:16:42;95965.25;;;12.89;100.00
20015;BME280;61787;42.022;23.078;2023-04-25T05:17:44;95964.94;;;12.94;100.00
20015;BME280;61787;42.022;23.078;2023-04-25T05:18:47;95966.56;;;13.02;100.00
20015;BME280;61787;42.022;23.078;2023-04-25T05:19:49;95967.75;;;13.08;100.00
20015;BME280;61787;42.022;23.078;2023-04-25T05:20:51;95972.75;;;13.06;100.00